sensor_id;sensor_type;location;lat;lon;timestamp;temperature;humidity
4701;DHT22;8724;51.272;6.554;2022-07-29T00:01:30;23.00;96.30
4701;DHT22;8724;51.272;6.554;2022-07-29T00:03:58;23.00;96.40
4701;DHT22;8724;51.272;6.554;2022-07-29T00:06:27;23.00;96.40
4701;DHT22;8724;51.272;6.554;2022-07-29T00:08:55;23.00;96.40
4701;DHT22;8724;51.272;6.554;2022-07-29T00:11:23;22.90;96.40
4701;DHT22;8724;51.272;6.554;2022-07-29T00:13:53;23.00;96.40
4701;DHT22;8724;51.272;6.554;2022-07-29T00:16:21;22.90;96.40
4701;DHT22;8724;51.272;6.554;2022-07-29T00:18:50;23.00;96.50
4701;DHT22;8724;51.272;6.554;2022-07-29T00:21:18;22.90;96.50
4701;DHT22;8724;51.272;6.554;2022-07-29T00:23:46;22.90;96.60
4701;DHT22;8724;51.272;6.554;2022-07-29T00:26:14;22.90;96.60
4701;DHT22;8724;51.272;6.554;2022-07-29T00:28:43;22.90;96.70
4701;DHT22;8724;51.272;6.554;2022-07-29T00:31:12;22.90;96.70
4701;DHT22;8724;51.272;6.554;2022-07-29T00:33:41;22.90;96.80
4701;DHT22;8724;51.272;6.554;2022-07-29T00:36:09;22.90;96.70
4701;DHT22;8724;51.272;6.554;2022-07-29T00:38:36;22.80;96.60
4701;DHT22;8724;51.272;6.554;2022-07-29T00:41:04;22.80;96.60
4701;DHT22;8724;51.272;6.554;2022-07-29T00:43:33;22.80;96.60
4701;DHT22;8724;51.272;6.554;2022-07-29T00:46:01;22.80;96.70
4701;DHT22;8724;51.272;6.554;2022-07-29T00:48:31;22.80;96.80
4701;DHT22;8724;51.272;6.554;2022-07-29T00:51:02;22.80;96.80
4701;DHT22;8724;51.272;6.554;2022-07-29T00:53:31;22.80;96.80
4701;DHT22;8724;51.272;6.554;2022-07-29T00:56:00;22.80;96.80
4701;DHT22;8724;51.272;6.554;2022-07-29T00:58:28;22.80;96.80
4701;DHT22;8724;51.272;6.554;2022-07-29T01:00:57;22.80;96.80
4701;DHT22;8724;51.272;6.554;2022-07-29T01:03:26;22.80;96.70
4701;DHT22;8724;51.272;6.554;2022-07-29T01:05:56;22.80;96.70
4701;DHT22;8724;51.272;6.554;2022-07-29T01:08:24;22.80;96.60
4701;DHT22;8724;51.272;6.554;2022-07-29T01:10:53;22.80;96.50
4701;DHT22;8724;51.272;6.554;2022-07-29T01:13:22;22.80;96.50
4701;DHT22;8724;51.272;6.554;2022-07-29T01:15:55;22.80;96.50
4701;DHT22;8724;51.272;6.554;2022-07-29T01:18:30;22.70;96.50
4701;DHT22;8724;51.272;6.554;2022-07-29T01:21:27;22.70;96.50
4701;DHT22;8724;51.272;6.554;2022-07-29T01:24:14;22.70;96.50
4701;DHT22;8724;51.272;6.554;2022-07-29T01:26:51;22.70;96.60
4701;DHT22;8724;51.272;6.554;2022-07-29T01:29:25;22.70;96.60
4701;DHT22;8724;51.272;6.554;2022-07-29T01:32:07;22.70;96.60
4701;DHT22;8724;51.272;6.554;2022-07-29T01:34:57;22.70;96.50
4701;DHT22;8724;51.272;6.554;2022-07-29T01:37:31;22.70;96.60
4701;DHT22;8724;51.272;6.554;2022-07-29T01:40:03;22.70;96.70
4701;DHT22;8724;51.272;6.554;2022-07-29T01:42:35;22.70;96.70
4701;DHT22;8724;51.272;6.554;2022-07-29T01:45:14;22.70;96.80
4701;DHT22;8724;51.272;6.554;2022-07-29T01:47:46;22.70;96.80
4701;DHT22;8724;51.272;6.554;2022-07-29T01:50:18;22.70;96.90
4701;DHT22;8724;51.272;6.554;2022-07-29T01:52:54;22.70;96.90
4701;DHT22;8724;51.272;6.554;2022-07-29T01:55:28;22.70;96.80
4701;DHT22;8724;51.272;6.554;2022-07-29T01:57:58;22.70;96.80
4701;DHT22;8724;51.272;6.554;2022-07-29T02:00:29;22.60;96.60
4701;DHT22;8724;51.272;6.554;2022-07-29T02:02:59;22.60;96.60
4701;DHT22;8724;51.272;6.554;2022-07-29T02:05:30;22.60;96.80
4701;DHT22;8724;51.272;6.554;2022-07-29T02:08:01;22.50;97.10
4701;DHT22;8724;51.272;6.554;2022-07-29T02:10:32;22.30;97.20
4701;DHT22;8724;51.272;6.554;2022-07-29T02:13:02;22.20;97.20
4701;DHT22;8724;51.272;6.554;2022-07-29T02:15:33;22.10;97.20
4701;DHT22;8724;51.272;6.554;2022-07-29T02:18:04;22.10;97.30
4701;DHT22;8724;51.272;6.554;2022-07-29T02:20:34;22.00;97.30
4701;DHT22;8724;51.272;6.554;2022-07-29T02:23:04;21.90;97.40
4701;DHT22;8724;51.272;6.554;2022-07-29T02:25:34;21.90;97.40
4701;DHT22;8724;51.272;6.554;2022-07-29T02:28:05;21.80;97.30
4701;DHT22;8724;51.272;6.554;2022-07-29T02:30:40;21.70;97.20
4701;DHT22;8724;51.272;6.554;2022-07-29T02:33:10;21.70;97.30
4701;DHT22;8724;51.272;6.554;2022-07-29T02:35:41;21.60;97.30
4701;DHT22;8724;51.272;6.554;2022-07-29T02:38:14;21.50;97.50
4701;DHT22;8724;51.272;6.554;2022-07-29T02:41:02;21.50;97.70
4701;DHT22;8724;51.272;6.554;2022-07-29T02:43:31;21.10;97.60
4701;DHT22;8724;51.272;6.554;2022-07-29T02:46:03;21.40;97.90
4701;DHT22;8724;51.272;6.554;2022-07-29T02:48:57;21.40;98.20
4701;DHT22;8724;51.272;6.554;2022-07-29T02:51:32;21.40;98.40
4701;DHT22;8724;51.272;6.554;2022-07-29T02:54:22;21.30;98.50
4701;DHT22;8724;51.272;6.554;2022-07-29T02:56:52;21.30;98.50
4701;DHT22;8724;51.272;6.554;2022-07-29T02:59:24;21.40;98.70
4701;DHT22;8724;51.272;6.554;2022-07-29T03:01:59;21.30;98.80
4701;DHT22;8724;51.272;6.554;2022-07-29T03:04:30;21.30;98.80
4701;DHT22;8724;51.272;6.554;2022-07-29T03:07:00;21.30;98.80
4701;DHT22;8724;51.272;6.554;2022-07-29T03:09:30;21.40;98.80
4701;DHT22;8724;51.272;6.554;2022-07-29T03:12:00;21.30;98.90
4701;DHT22;8724;51.272;6.554;2022-07-29T03:14:30;21.30;98.90
4701;DHT22;8724;51.272;6.554;2022-07-29T03:17:01;21.30;99.10
4701;DHT22;8724;51.272;6.554;2022-07-29T03:19:31;21.30;99.30
4701;DHT22;8724;51.272;6.554;2022-07-29T03:22:00;21.30;99.30
4701;DHT22;8724;51.272;6.554;2022-07-29T03:24:31;21.30;99.90
4701;DHT22;8724;51.272;6.554;2022-07-29T03:27:00;21.30;99.90
4701;DHT22;8724;51.272;6.554;2022-07-29T03:29:30;21.30;99.90
4701;DHT22;8724;51.272;6.554;2022-07-29T03:32:03;21.30;99.90
4701;DHT22;8724;51.272;6.554;2022-07-29T03:34:35;21.30;99.90
4701;DHT22;8724;51.272;6.554;2022-07-29T03:37:07;21.30;99.90
4701;DHT22;8724;51.272;6.554;2022-07-29T03:39:40;21.30;99.90
4701;DHT22;8724;51.272;6.554;2022-07-29T03:42:15;21.30;99.90
4701;DHT22;8724;51.272;6.554;2022-07-29T03:44:46;21.30;99.90
4701;DHT22;8724;51.272;6.554;2022-07-29T03:47:20;21.40;99.90
4701;DHT22;8724;51.272;6.554;2022-07-29T03:50:11;21.40;99.90
4701;DHT22;8724;51.272;6.554;2022-07-29T03:52:41;21.40;99.90
4701;DHT22;8724;51.272;6.554;2022-07-29T03:55:11;21.40;99.90
4701;DHT22;8724;51.272;6.554;2022-07-29T03:57:41;21.30;99.90
4701;DHT22;8724;51.272;6.554;2022-07-29T04:00:11;21.30;99.90
4701;DHT22;8724;51.272;6.554;2022-07-29T04:02:43;21.30;99.90
4701;DHT22;8724;51.272;6.554;2022-07-29T04:05:16;21.30;99.90
4701;DHT22;8724;51.272;6.554;2022-07-29T04:07:48;21.30;99.90
4701;DHT22;8724;51.272;6.554;2022-07-29T04:10:18;21.30;99.90
4701;DHT22;8724;51.272;6.554;2022-07-29T04:12:58;21.30;99.90
4701;DHT22;8724;51.272;6.554;2022-07-29T04:15:27;21.30;99.90
4701;DHT22;8724;51.272;6.554;2022-07-29T04:17:59;21.30;99.90
4701;DHT22;8724;51.272;6.554;2022-07-29T04:20:28;21.20;99.90
4701;DHT22;8724;51.272;6.554;2022-07-29T04:22:57;21.10;99.90
4701;DHT22;8724;51.272;6.554;2022-07-29T04:25:25;21.20;99.90
4701;DHT22;8724;51.272;6.554;2022-07-29T04:27:54;21.20;99.90
4701;DHT22;8724;51.272;6.554;2022-07-29T04:30:30;21.10;99.90
4701;DHT22;8724;51.272;6.554;2022-07-29T04:33:00;21.10;99.90
4701;DHT22;8724;51.272;6.554;2022-07-29T04:35:30;21.10;99.90
4701;DHT22;8724;51.272;6.554;2022-07-29T04:38:05;21.10;99.90
4701;DHT22;8724;51.272;6.554;2022-07-29T04:40:43;21.10;99.90
4701;DHT22;8724;51.272;6.554;2022-07-29T04:43:15;21.00;99.90
4701;DHT22;8724;51.272;6.554;2022-07-29T04:45:49;21.10;99.90
4701;DHT22;8724;51.272;6.554;2022-07-29T04:48:19;21.10;99.90
4701;DHT22;8724;51.272;6.554;2022-07-29T04:50:54;21.10;99.90
4701;DHT22;8724;51.272;6.554;2022-07-29T04:53:23;21.10;99.90
4701;DHT22;8724;51.272;6.554;2022-07-29T04:55:52;21.00;99.90
4701;DHT22;8724;51.272;6.554;2022-07-29T04:58:21;21.10;99.90
4701;DHT22;8724;51.272;6.554;2022-07-29T05:00:56;21.10;99.90
4701;DHT22;8724;51.272;6.554;2022-07-29T05:03:26;21.10;99.90
4701;DHT22;8724;51.272;6.554;2022-07-29T05:05:55;21.10;99.90
4701;DHT22;8724;51.272;6.554;2022-07-29T05:08:24;21.10;99.90
4701;DHT22;8724;51.272;6.554;2022-07-29T05:10:55;21.10;99.90
4701;DHT22;8724;51.272;6.554;2022-07-29T05:13:37;21.10;99.90
4701;DHT22;8724;51.272;6.554;2022-07-29T05:16:13;21.10;99.90
4701;DHT22;8724;51.272;6.554;2022-07-29T05:18:45;21.10;99.90
4701;DHT22;8724;51.272;6.554;2022-07-29T05:21:13;21.00;99.90
4701;DHT22;8724;51.272;6.554;2022-07-29T05:23:42;21.00;99.90
4701;DHT22;8724;51.272;6.554;2022-07-29T05:26:10;21.00;99.90
4701;DHT22;8724;51.272;6.554;2022-07-29T05:28:39;21.00;99.90
4701;DHT22;8724;51.272;6.554;2022-07-29T05:31:08;21.00;99.90
4701;DHT22;8724;51.272;6.554;2022-07-29T05:33:37;21.00;99.90
4701;DHT22;8724;51.272;6.554;2022-07-29T05:36:07;21.00;99.90
4701;DHT22;8724;51.272;6.554;2022-07-29T05:38:36;21.00;99.90
4701;DHT22;8724;51.272;6.554;2022-07-29T05:41:05;21.00;99.90
4701;DHT22;8724;51.272;6.554;2022-07-29T05:43:33;21.00;99.90
4701;DHT22;8724;51.272;6.554;2022-07-29T05:46:02;21.00;99.90
4701;DHT22;8724;51.272;6.554;2022-07-29T05:48:31;21.10;99.90
4701;DHT22;8724;51.272;6.554;2022-07-29T05:51:00;21.00;99.90
4701;DHT22;8724;51.272;6.554;2022-07-29T05:53:30;21.10;99.90
4701;DHT22;8724;51.272;6.554;2022-07-29T05:56:03;21.10;99.90
4701;DHT22;8724;51.272;6.554;2022-07-29T05:58:32;21.10;99.90
4701;DHT22;8724;51.272;6.554;2022-07-29T06:01:01;21.10;99.90
4701;DHT22;8724;51.272;6.554;2022-07-29T06:03:30;21.10;99.90
4701;DHT22;8724;51.272;6.554;2022-07-29T06:05:58;21.10;99.90
4701;DHT22;8724;51.272;6.554;2022-07-29T06:08:27;21.10;99.90
4701;DHT22;8724;51.272;6.554;2022-07-29T06:10:57;21.10;99.90
4701;DHT22;8724;51.272;6.554;2022-07-29T06:13:25;21.10;99.90
4701;DHT22;8724;51.272;6.554;2022-07-29T06:15:54;21.10;99.90
4701;DHT22;8724;51.272;6.554;2022-07-29T06:18:23;21.10;99.90
4701;DHT22;8724;51.272;6.554;2022-07-29T06:20:52;21.10;99.90
4701;DHT22;8724;51.272;6.554;2022-07-29T06:23:21;21.10;99.90
4701;DHT22;8724;51.272;6.554;2022-07-29T06:25:50;21.10;99.90
4701;DHT22;8724;51.272;6.554;2022-07-29T06:28:20;21.10;99.90
4701;DHT22;8724;51.272;6.554;2022-07-29T06:30:49;21.10;99.90
4701;DHT22;8724;51.272;6.554;2022-07-29T06:33:17;21.10;99.90
4701;DHT22;8724;51.272;6.554;2022-07-29T06:35:47;21.10;99.90
4701;DHT22;8724;51.272;6.554;2022-07-29T06:38:21;21.10;99.90
4701;DHT22;8724;51.272;6.554;2022-07-29T06:41:00;21.10;99.90
4701;DHT22;8724;51.272;6.554;2022-07-29T06:43:34;21.10;99.90
4701;DHT22;8724;51.272;6.554;2022-07-29T06:46:21;21.10;99.90
4701;DHT22;8724;51.272;6.554;2022-07-29T06:48:50;21.10;99.90
4701;DHT22;8724;51.272;6.554;2022-07-29T06:51:19;21.10;99.90
4701;DHT22;8724;51.272;6.554;2022-07-29T06:53:50;21.10;99.90
4701;DHT22;8724;51.272;6.554;2022-07-29T06:56:29;21.10;99.90
4701;DHT22;8724;51.272;6.554;2022-07-29T06:59:06;21.10;99.90
4701;DHT22;8724;51.272;6.554;2022-07-29T07:01:35;21.10;99.90
4701;DHT22;8724;51.272;6.554;2022-07-29T07:04:04;21.00;99.90
4701;DHT22;8724;51.272;6.554;2022-07-29T07:06:32;21.10;99.90
4701;DHT22;8724;51.272;6.554;2022-07-29T07:09:01;21.10;99.90
4701;DHT22;8724;51.272;6.554;2022-07-29T07:11:29;21.10;99.90
4701;DHT22;8724;51.272;6.554;2022-07-29T07:13:57;21.10;99.90
4701;DHT22;8724;51.272;6.554;2022-07-29T07:16:31;21.10;99.90
4701;DHT22;8724;51.272;6.554;2022-07-29T07:19:00;21.10;99.90
4701;DHT22;8724;51.272;6.554;2022-07-29T07:21:28;21.10;99.90
4701;DHT22;8724;51.272;6.554;2022-07-29T07:23:58;21.10;99.90
4701;DHT22;8724;51.272;6.554;2022-07-29T07:26:27;21.10;99.90
4701;DHT22;8724;51.272;6.554;2022-07-29T07:28:56;21.00;99.90
4701;DHT22;8724;51.272;6.554;2022-07-29T07:31:24;21.00;99.90
4701;DHT22;8724;51.272;6.554;2022-07-29T07:33:54;21.00;99.90
4701;DHT22;8724;51.272;6.554;2022-07-29T07:36:23;21.00;99.90
4701;DHT22;8724;51.272;6.554;2022-07-29T07:38:51;21.00;99.90
4701;DHT22;8724;51.272;6.554;2022-07-29T07:41:21;21.10;99.90
4701;DHT22;8724;51.272;6.554;2022-07-29T07:43:49;21.20;99.90
4701;DHT22;8724;51.272;6.554;2022-07-29T07:46:18;21.00;99.90
4701;DHT22;8724;51.272;6.554;2022-07-29T07:48:46;21.10;99.90
4701;DHT22;8724;51.272;6.554;2022-07-29T07:51:16;21.00;99.90
4701;DHT22;8724;51.272;6.554;2022-07-29T07:53:44;21.10;99.90
4701;DHT22;8724;51.272;6.554;2022-07-29T07:56:16;21.10;99.90
4701;DHT22;8724;51.272;6.554;2022-07-29T07:58:44;21.10;99.90
4701;DHT22;8724;51.272;6.554;2022-07-29T08:01:13;21.00;99.90
4701;DHT22;8724;51.272;6.554;2022-07-29T08:03:41;21.10;99.90
4701;DHT22;8724;51.272;6.554;2022-07-29T08:06:09;21.10;99.90
4701;DHT22;8724;51.272;6.554;2022-07-29T08:08:39;21.10;99.90
4701;DHT22;8724;51.272;6.554;2022-07-29T08:11:08;21.10;99.90
4701;DHT22;8724;51.272;6.554;2022-07-29T08:13:37;21.10;99.90
4701;DHT22;8724;51.272;6.554;2022-07-29T08:16:06;21.20;99.90
4701;DHT22;8724;51.272;6.554;2022-07-29T08:18:43;21.20;99.90
4701;DHT22;8724;51.272;6.554;2022-07-29T08:21:13;21.20;99.90
4701;DHT22;8724;51.272;6.554;2022-07-29T08:23:44;21.20;99.90
4701;DHT22;8724;51.272;6.554;2022-07-29T08:26:26;21.20;99.90
4701;DHT22;8724;51.272;6.554;2022-07-29T08:28:55;21.20;99.90
4701;DHT22;8724;51.272;6.554;2022-07-29T08:31:23;21.30;99.90
4701;DHT22;8724;51.272;6.554;2022-07-29T08:33:52;21.30;99.90
4701;DHT22;8724;51.272;6.554;2022-07-29T08:36:20;21.30;99.90
4701;DHT22;8724;51.272;6.554;2022-07-29T08:38:50;21.30;99.90
4701;DHT22;8724;51.272;6.554;2022-07-29T08:41:19;21.30;99.90
4701;DHT22;8724;51.272;6.554;2022-07-29T08:43:47;21.30;99.90
4701;DHT22;8724;51.272;6.554;2022-07-29T08:46:16;21.40;99.90
4701;DHT22;8724;51.272;6.554;2022-07-29T08:48:45;21.40;99.90
4701;DHT22;8724;51.272;6.554;2022-07-29T08:51:15;21.40;99.90
4701;DHT22;8724;51.272;6.554;2022-07-29T08:53:45;21.40;99.90
4701;DHT22;8724;51.272;6.554;2022-07-29T08:56:18;21.30;99.90
4701;DHT22;8724;51.272;6.554;2022-07-29T08:58:48;21.30;99.90
4701;DHT22;8724;51.272;6.554;2022-07-29T09:01:22;21.30;99.90
4701;DHT22;8724;51.272;6.554;2022-07-29T09:04:04;21.30;99.90
4701;DHT22;8724;51.272;6.554;2022-07-29T09:06:37;21.30;99.90
4701;DHT22;8724;51.272;6.554;2022-07-29T09:09:08;21.30;99.90
4701;DHT22;8724;51.272;6.554;2022-07-29T09:11:38;21.30;99.90
4701;DHT22;8724;51.272;6.554;2022-07-29T09:14:07;21.30;99.90
4701;DHT22;8724;51.272;6.554;2022-07-29T09:16:51;21.30;99.90
4701;DHT22;8724;51.272;6.554;2022-07-29T09:19:26;21.30;99.90
4701;DHT22;8724;51.272;6.554;2022-07-29T09:21:56;21.30;99.90
4701;DHT22;8724;51.272;6.554;2022-07-29T09:24:46;21.30;99.90
4701;DHT22;8724;51.272;6.554;2022-07-29T09:28:10;21.30;99.90
4701;DHT22;8724;51.272;6.554;2022-07-29T09:30:51;21.20;99.90
4701;DHT22;8724;51.272;6.554;2022-07-29T09:33:20;21.20;99.90
4701;DHT22;8724;51.272;6.554;2022-07-29T09:35:59;21.20;99.90
4701;DHT22;8724;51.272;6.554;2022-07-29T09:38:30;21.20;99.90
4701;DHT22;8724;51.272;6.554;2022-07-29T09:40:59;21.20;99.90
4701;DHT22;8724;51.272;6.554;2022-07-29T09:43:34;21.20;99.90
4701;DHT22;8724;51.272;6.554;2022-07-29T09:46:11;21.20;99.90
4701;DHT22;8724;51.272;6.554;2022-07-29T09:48:39;21.30;99.90
4701;DHT22;8724;51.272;6.554;2022-07-29T09:51:17;21.30;99.90
4701;DHT22;8724;51.272;6.554;2022-07-29T09:54:21;21.30;99.90
4701;DHT22;8724;51.272;6.554;2022-07-29T09:56:53;21.30;99.90
4701;DHT22;8724;51.272;6.554;2022-07-29T09:59:24;21.30;99.90
4701;DHT22;8724;51.272;6.554;2022-07-29T10:01:53;21.30;99.90
4701;DHT22;8724;51.272;6.554;2022-07-29T10:04:22;21.30;99.90
4701;DHT22;8724;51.272;6.554;2022-07-29T10:06:58;21.30;99.90
4701;DHT22;8724;51.272;6.554;2022-07-29T10:09:31;21.30;99.90
4701;DHT22;8724;51.272;6.554;2022-07-29T10:12:08;21.30;99.90
4701;DHT22;8724;51.272;6.554;2022-07-29T10:14:40;21.20;99.90
4701;DHT22;8724;51.272;6.554;2022-07-29T10:17:09;21.20;99.90
4701;DHT22;8724;51.272;6.554;2022-07-29T10:19:38;21.20;99.90
4701;DHT22;8724;51.272;6.554;2022-07-29T10:22:09;21.20;99.90
4701;DHT22;8724;51.272;6.554;2022-07-29T10:24:38;21.20;99.90
4701;DHT22;8724;51.272;6.554;2022-07-29T10:27:08;21.20;99.90
4701;DHT22;8724;51.272;6.554;2022-07-29T10:29:36;21.20;99.90
4701;DHT22;8724;51.272;6.554;2022-07-29T10:32:20;21.20;99.90
4701;DHT22;8724;51.272;6.554;2022-07-29T10:35:19;21.50;99.90
4701;DHT22;8724;51.272;6.554;2022-07-29T10:38:17;21.30;99.90
4701;DHT22;8724;51.272;6.554;2022-07-29T10:40:57;21.30;99.90
4701;DHT22;8724;51.272;6.554;2022-07-29T10:43:46;21.40;99.90
4701;DHT22;8724;51.272;6.554;2022-07-29T10:46:18;21.40;99.90
4701;DHT22;8724;51.272;6.554;2022-07-29T10:49:11;21.40;99.90
4701;DHT22;8724;51.272;6.554;2022-07-29T10:52:09;21.40;99.90
4701;DHT22;8724;51.272;6.554;2022-07-29T10:54:45;21.40;99.90
4701;DHT22;8724;51.272;6.554;2022-07-29T10:57:25;21.50;99.90
4701;DHT22;8724;51.272;6.554;2022-07-29T11:00:28;21.50;99.90
4701;DHT22;8724;51.272;6.554;2022-07-29T11:02:58;21.50;99.90
4701;DHT22;8724;51.272;6.554;2022-07-29T11:05:54;21.50;99.90
4701;DHT22;8724;51.272;6.554;2022-07-29T11:08:26;21.60;99.90
4701;DHT22;8724;51.272;6.554;2022-07-29T11:14:17;21.60;99.90
4701;DHT22;8724;51.272;6.554;2022-07-29T11:17:03;21.70;99.90
4701;DHT22;8724;51.272;6.554;2022-07-29T11:19:33;21.70;99.90
4701;DHT22;8724;51.272;6.554;2022-07-29T11:22:09;21.70;99.90
4701;DHT22;8724;51.272;6.554;2022-07-29T11:24:42;21.70;99.90
4701;DHT22;8724;51.272;6.554;2022-07-29T11:27:17;21.70;99.90
4701;DHT22;8724;51.272;6.554;2022-07-29T11:29:52;21.80;99.90
4701;DHT22;8724;51.272;6.554;2022-07-29T11:32:42;21.80;99.90
4701;DHT22;8724;51.272;6.554;2022-07-29T11:35:16;21.80;99.90
4701;DHT22;8724;51.272;6.554;2022-07-29T11:38:27;21.80;99.90
4701;DHT22;8724;51.272;6.554;2022-07-29T11:41:22;21.80;99.90
4701;DHT22;8724;51.272;6.554;2022-07-29T11:43:54;21.80;99.90
4701;DHT22;8724;51.272;6.554;2022-07-29T11:46:44;21.80;99.90
4701;DHT22;8724;51.272;6.554;2022-07-29T11:49:19;21.80;99.90
4701;DHT22;8724;51.272;6.554;2022-07-29T11:51:59;21.80;99.90
4701;DHT22;8724;51.272;6.554;2022-07-29T11:54:33;21.80;99.90
4701;DHT22;8724;51.272;6.554;2022-07-29T11:57:22;21.90;99.90
4701;DHT22;8724;51.272;6.554;2022-07-29T12:00:05;21.80;99.90
4701;DHT22;8724;51.272;6.554;2022-07-29T12:02:39;21.90;99.90
4701;DHT22;8724;51.272;6.554;2022-07-29T12:05:15;21.90;99.90
4701;DHT22;8724;51.272;6.554;2022-07-29T12:08:14;21.80;99.90
4701;DHT22;8724;51.272;6.554;2022-07-29T12:10:48;21.90;99.90
4701;DHT22;8724;51.272;6.554;2022-07-29T12:13:19;21.90;99.90
4701;DHT22;8724;51.272;6.554;2022-07-29T12:16:04;21.80;99.90
4701;DHT22;8724;51.272;6.554;2022-07-29T12:18:32;21.90;99.90
4701;DHT22;8724;51.272;6.554;2022-07-29T12:21:02;21.80;99.90
4701;DHT22;8724;51.272;6.554;2022-07-29T12:23:31;21.90;99.90
4701;DHT22;8724;51.272;6.554;2022-07-29T12:26:03;21.90;99.90
4701;DHT22;8724;51.272;6.554;2022-07-29T12:28:37;21.90;99.90
4701;DHT22;8724;51.272;6.554;2022-07-29T12:31:11;21.90;99.90
4701;DHT22;8724;51.272;6.554;2022-07-29T12:34:00;21.90;99.90
4701;DHT22;8724;51.272;6.554;2022-07-29T12:36:29;21.90;99.90
4701;DHT22;8724;51.272;6.554;2022-07-29T12:38:57;21.90;99.90
4701;DHT22;8724;51.272;6.554;2022-07-29T12:41:28;22.00;99.90
4701;DHT22;8724;51.272;6.554;2022-07-29T12:43:57;22.00;99.90
4701;DHT22;8724;51.272;6.554;2022-07-29T12:46:26;22.00;99.90
4701;DHT22;8724;51.272;6.554;2022-07-29T12:48:55;22.10;99.90
4701;DHT22;8724;51.272;6.554;2022-07-29T12:51:30;22.20;99.90
4701;DHT22;8724;51.272;6.554;2022-07-29T12:54:04;22.20;99.90
4701;DHT22;8724;51.272;6.554;2022-07-29T12:56:35;22.20;99.90
4701;DHT22;8724;51.272;6.554;2022-07-29T12:59:16;22.20;99.90
4701;DHT22;8724;51.272;6.554;2022-07-29T13:01:45;22.30;99.90
4701;DHT22;8724;51.272;6.554;2022-07-29T13:04:26;22.30;99.90
4701;DHT22;8724;51.272;6.554;2022-07-29T13:06:59;22.30;99.90
4701;DHT22;8724;51.272;6.554;2022-07-29T13:09:41;22.40;99.90
4701;DHT22;8724;51.272;6.554;2022-07-29T13:12:12;22.40;99.90
4701;DHT22;8724;51.272;6.554;2022-07-29T13:14:41;22.40;99.90
4701;DHT22;8724;51.272;6.554;2022-07-29T13:17:11;22.40;99.90
4701;DHT22;8724;51.272;6.554;2022-07-29T13:19:41;22.50;99.90
4701;DHT22;8724;51.272;6.554;2022-07-29T13:22:11;22.50;99.90
4701;DHT22;8724;51.272;6.554;2022-07-29T13:24:48;22.50;99.90
4701;DHT22;8724;51.272;6.554;2022-07-29T13:27:19;22.50;99.90
4701;DHT22;8724;51.272;6.554;2022-07-29T13:29:48;22.60;99.90
4701;DHT22;8724;51.272;6.554;2022-07-29T13:32:18;22.60;99.90
4701;DHT22;8724;51.272;6.554;2022-07-29T13:34:55;22.70;99.90
4701;DHT22;8724;51.272;6.554;2022-07-29T13:37:23;22.70;99.90
4701;DHT22;8724;51.272;6.554;2022-07-29T13:39:52;22.70;99.90
4701;DHT22;8724;51.272;6.554;2022-07-29T13:42:24;22.70;99.90
4701;DHT22;8724;51.272;6.554;2022-07-29T13:44:53;22.80;99.90
4701;DHT22;8724;51.272;6.554;2022-07-29T13:47:22;22.80;99.90
4701;DHT22;8724;51.272;6.554;2022-07-29T13:49:59;22.80;99.90
4701;DHT22;8724;51.272;6.554;2022-07-29T13:52:27;22.90;99.90
4701;DHT22;8724;51.272;6.554;2022-07-29T13:54:56;23.00;99.90
4701;DHT22;8724;51.272;6.554;2022-07-29T13:57:26;23.00;99.90
4701;DHT22;8724;51.272;6.554;2022-07-29T13:59:55;23.00;99.90
4701;DHT22;8724;51.272;6.554;2022-07-29T14:02:23;23.00;99.90
4701;DHT22;8724;51.272;6.554;2022-07-29T14:04:52;23.10;99.90
4701;DHT22;8724;51.272;6.554;2022-07-29T14:07:22;23.10;99.90
4701;DHT22;8724;51.272;6.554;2022-07-29T14:09:50;23.10;99.90
4701;DHT22;8724;51.272;6.554;2022-07-29T14:12:18;23.20;99.90
4701;DHT22;8724;51.272;6.554;2022-07-29T14:14:49;23.30;99.90
4701;DHT22;8724;51.272;6.554;2022-07-29T14:17:17;23.30;99.90
4701;DHT22;8724;51.272;6.554;2022-07-29T14:19:46;23.40;99.90
4701;DHT22;8724;51.272;6.554;2022-07-29T14:22:14;23.40;99.90
4701;DHT22;8724;51.272;6.554;2022-07-29T14:24:42;23.50;99.90
4701;DHT22;8724;51.272;6.554;2022-07-29T14:27:11;23.50;99.90
4701;DHT22;8724;51.272;6.554;2022-07-29T14:29:40;23.60;99.90
4701;DHT22;8724;51.272;6.554;2022-07-29T14:41:58;23.90;99.90
4701;DHT22;8724;51.272;6.554;2022-07-29T14:44:27;23.90;99.90
4701;DHT22;8724;51.272;6.554;2022-07-29T14:46:58;24.00;99.90
4701;DHT22;8724;51.272;6.554;2022-07-29T14:49:34;24.00;99.90
4701;DHT22;8724;51.272;6.554;2022-07-29T14:52:02;24.00;99.90
4701;DHT22;8724;51.272;6.554;2022-07-29T14:54:32;24.10;99.90
4701;DHT22;8724;51.272;6.554;2022-07-29T14:57:00;24.10;99.90
4701;DHT22;8724;51.272;6.554;2022-07-29T14:59:29;24.20;99.90
4701;DHT22;8724;51.272;6.554;2022-07-29T15:01:58;24.20;99.90
4701;DHT22;8724;51.272;6.554;2022-07-29T15:04:27;24.30;99.90
4701;DHT22;8724;51.272;6.554;2022-07-29T15:06:55;24.40;99.90
4701;DHT22;8724;51.272;6.554;2022-07-29T15:09:24;24.40;99.90
4701;DHT22;8724;51.272;6.554;2022-07-29T15:11:54;24.50;99.90
4701;DHT22;8724;51.272;6.554;2022-07-29T15:14:23;24.60;99.90
4701;DHT22;8724;51.272;6.554;2022-07-29T15:16:51;24.70;99.90
4701;DHT22;8724;51.272;6.554;2022-07-29T15:19:20;24.80;99.90
4701;DHT22;8724;51.272;6.554;2022-07-29T15:21:48;25.00;99.90
4701;DHT22;8724;51.272;6.554;2022-07-29T15:24:17;25.20;99.90
4701;DHT22;8724;51.272;6.554;2022-07-29T15:26:46;25.40;99.90
4701;DHT22;8724;51.272;6.554;2022-07-29T15:29:16;25.50;99.90
4701;DHT22;8724;51.272;6.554;2022-07-29T15:31:44;25.70;99.90
4701;DHT22;8724;51.272;6.554;2022-07-29T15:34:13;25.90;99.90
4701;DHT22;8724;51.272;6.554;2022-07-29T15:36:41;26.10;99.90
4701;DHT22;8724;51.272;6.554;2022-07-29T15:39:19;26.30;99.90
4701;DHT22;8724;51.272;6.554;2022-07-29T15:41:48;26.50;99.90
4701;DHT22;8724;51.272;6.554;2022-07-29T15:44:18;26.80;99.90
4701;DHT22;8724;51.272;6.554;2022-07-29T15:46:47;26.90;99.90
4701;DHT22;8724;51.272;6.554;2022-07-29T15:49:32;27.30;99.90
4701;DHT22;8724;51.272;6.554;2022-07-29T15:52:16;27.40;99.90
4701;DHT22;8724;51.272;6.554;2022-07-29T15:54:52;27.60;99.90
4701;DHT22;8724;51.272;6.554;2022-07-29T15:57:22;27.60;99.90
4701;DHT22;8724;51.272;6.554;2022-07-29T15:59:52;27.70;99.90
4701;DHT22;8724;51.272;6.554;2022-07-29T16:02:20;27.60;99.90
4701;DHT22;8724;51.272;6.554;2022-07-29T16:04:49;27.50;99.90
4701;DHT22;8724;51.272;6.554;2022-07-29T16:07:17;27.30;99.90
4701;DHT22;8724;51.272;6.554;2022-07-29T16:09:45;27.10;99.90
4701;DHT22;8724;51.272;6.554;2022-07-29T16:12:19;26.80;99.90
4701;DHT22;8724;51.272;6.554;2022-07-29T16:14:48;26.60;99.90
4701;DHT22;8724;51.272;6.554;2022-07-29T16:17:19;26.40;99.90
4701;DHT22;8724;51.272;6.554;2022-07-29T16:19:47;26.20;99.90
4701;DHT22;8724;51.272;6.554;2022-07-29T16:22:15;26.20;99.90
4701;DHT22;8724;51.272;6.554;2022-07-29T16:24:46;26.00;99.90
4701;DHT22;8724;51.272;6.554;2022-07-29T16:27:15;26.10;99.90
4701;DHT22;8724;51.272;6.554;2022-07-29T16:29:43;26.20;99.90
4701;DHT22;8724;51.272;6.554;2022-07-29T16:32:13;26.20;99.90
4701;DHT22;8724;51.272;6.554;2022-07-29T16:34:49;26.10;99.90
4701;DHT22;8724;51.272;6.554;2022-07-29T16:37:18;26.10;99.90
4701;DHT22;8724;51.272;6.554;2022-07-29T16:39:46;26.10;99.90
4701;DHT22;8724;51.272;6.554;2022-07-29T16:42:14;26.20;99.90
4701;DHT22;8724;51.272;6.554;2022-07-29T16:45:04;26.20;99.90
4701;DHT22;8724;51.272;6.554;2022-07-29T16:47:33;26.30;99.90
4701;DHT22;8724;51.272;6.554;2022-07-29T16:50:03;26.20;99.90